Time;durP1;ratioP1;P1;durP2;ratioP2;P2;SDS_P1;SDS_P2;PMS_P1;PMS_P2;Temp;Humidity;BMP_temperature;BMP_pressure;BME280_temperature;BME280_humidity;BME280_pressure;Samples;Min_cycle;Max_cycle;Signal;HPM_P1;HPM_P2
2022/09/10 00:01:29;;;;;;;13.30;9.18;;;15.50;99.90;;;;;;4975799;28;20097;-84
2022/09/10 00:03:57;;;;;;;10.90;8.70;;;15.50;99.90;;;;;;4982953;28;20084;-84
2022/09/10 00:06:27;;;;;;;9.52;8.15;;;15.40;99.90;;;;;;4961101;28;20433;-84
2022/09/10 00:08:57;;;;;;;9.52;8.52;;;15.40;99.90;;;;;;4970439;28;20496;-84
2022/09/10 00:11:30;;;;;;;11.38;9.25;;;15.40;99.90;;;;;;4977985;28;20111;-84
2022/09/10 00:14:01;;;;;;;10.27;8.68;;;15.40;99.90;;;;;;4961957;28;20056;-83
2022/09/10 00:16:28;;;;;;;10.60;8.93;;;15.30;99.90;;;;;;4964957;28;20046;-84
2022/09/10 00:18:58;;;;;;;11.82;8.30;;;14.90;99.90;;;;;;4965709;28;20053;-84
2022/09/10 00:21:28;;;;;;;10.70;8.65;;;15.30;99.90;;;;;;4962906;28;20080;-84
2022/09/10 00:23:55;;;;;;;12.93;8.60;;;15.20;99.90;;;;;;4974349;28;20050;-84
2022/09/10 00:26:26;;;;;;;12.48;9.57;;;15.20;99.90;;;;;;4995436;28;20657;-84
2022/09/10 00:28:54;;;;;;;11.35;8.57;;;15.20;99.90;;;;;;4979120;28;20129;-85
2022/09/10 00:31:21;;;;;;;10.77;8.05;;;15.00;99.90;;;;;;4962678;28;20049;-84
2022/09/10 00:33:51;;;;;;;9.10;7.70;;;15.10;99.90;;;;;;5009699;28;20116;-85
2022/09/10 00:36:23;;;;;;;12.40;9.70;;;15.00;99.90;;;;;;4979909;28;20060;-84
2022/09/10 00:38:50;;;;;;;9.73;8.60;;;15.00;99.90;;;;;;4981279;28;20064;-85
2022/09/10 00:41:20;;;;;;;11.75;8.93;;;14.90;99.90;;;;;;4981501;28;20050;-86
2022/09/10 00:43:51;;;;;;;11.63;9.27;;;15.00;99.90;;;;;;4961037;28;20041;-84
2022/09/10 00:46:24;;;;;;;9.38;8.38;;;14.70;99.90;;;;;;4979609;28;20251;-84
2022/09/10 00:48:55;;;;;;;10.80;9.23;;;14.90;99.90;;;;;;4977474;28;20166;-85
2022/09/10 00:51:24;;;;;;;9.38;8.48;;;14.90;99.90;;;;;;4993554;28;20042;-84
2022/09/10 00:53:53;;;;;;;10.05;8.85;;;14.80;99.90;;;;;;4959262;28;20081;-85
2022/09/10 00:56:21;;;;;;;11.93;8.73;;;14.80;99.90;;;;;;4990117;28;20053;-85
2022/09/10 00:58:48;;;;;;;10.60;8.85;;;14.70;99.90;;;;;;4975820;28;20156;-85
2022/09/10 01:01:14;;;;;;;9.45;8.48;;;14.20;99.90;;;;;;4963726;28;20061;-84
2022/09/10 01:03:42;;;;;;;15.00;9.80;;;14.70;99.90;;;;;;4966140;28;20395;-84
2022/09/10 01:06:09;;;;;;;10.23;9.13;;;14.70;99.90;;;;;;4972955;28;20112;-83
2022/09/10 01:08:35;;;;;;;11.80;9.48;;;14.70;99.90;;;;;;4976332;28;20058;-84
2022/09/10 01:11:40;;;;;;;11.25;8.45;;;14.60;99.90;;;;;;4958331;28;20052;-84
2022/09/10 01:14:48;;;;;;;9.82;8.75;;;14.60;99.90;;;;;;4968674;28;20217;-84
2022/09/10 01:17:32;;;;;;;;;;;14.60;99.90;;;;;;4912503;28;20415;-84
2022/09/10 01:20:27;;;;;;;11.60;8.57;;;14.50;99.90;;;;;;4997354;28;19922;-84
2022/09/10 01:23:40;;;;;;;15.20;9.23;;;14.40;99.90;;;;;;4959623;28;21002;-84
2022/09/10 01:26:42;;;;;;;11.38;9.23;;;14.40;99.90;;;;;;4978140;28;20054;-84
2022/09/10 01:29:26;;;;;;;14.52;9.90;;;14.40;99.90;;;;;;4980438;28;20042;-84
2022/09/10 01:32:00;;;;;;;15.65;10.65;;;14.40;99.90;;;;;;4984264;28;20046;-84
2022/09/10 01:34:36;;;;;;;15.05;11.30;;;14.40;99.90;;;;;;4981218;28;20073;-82
2022/09/10 01:37:09;;;;;;;17.90;11.80;;;14.50;99.90;;;;;;4995165;28;20049;-84
2022/09/10 01:39:38;;;;;;;17.27;12.93;;;14.60;99.90;;;;;;4997980;28;20034;-84
2022/09/10 01:42:04;;;;;;;16.38;11.98;;;14.60;99.90;;;;;;4980115;28;20590;-84
2022/09/10 01:44:50;;;;;;;17.40;13.00;;;14.70;99.90;;;;;;4980974;28;20046;-85
2022/09/10 01:47:36;;;;;;;19.20;13.80;;;14.80;99.90;;;;;;4961667;28;20054;-84
2022/09/10 01:50:02;;;;;;;14.60;11.65;;;14.80;99.90;;;;;;4980799;28;20124;-85
2022/09/10 01:52:58;;;;;;;14.85;12.85;;;14.90;99.90;;;;;;4978806;28;21827;-85
2022/09/10 01:55:29;;;;;;;;;;;14.90;99.90;;;;;;4957864;28;20050;-85
2022/09/10 01:58:15;;;;;;;16.00;13.32;;;14.20;99.90;;;;;;4979818;28;19933;-86
2022/09/10 02:00:59;;;;;;;17.63;13.00;;;14.90;99.90;;;;;;4963960;28;20042;-85
2022/09/10 02:03:35;;;;;;;18.35;15.52;;;14.90;99.90;;;;;;4972758;28;20393;-85
2022/09/10 02:06:07;;;;;;;17.67;14.15;;;14.90;99.90;;;;;;4971225;28;20046;-86
2022/09/10 02:08:37;;;;;;;21.17;14.77;;;15.00;99.90;;;;;;4948780;28;20049;-85
2022/09/10 02:11:08;;;;;;;17.48;14.40;;;15.00;99.90;;;;;;4955831;28;20083;-86
2022/09/10 02:13:35;;;;;;;18.48;15.85;;;14.90;99.90;;;;;;4975319;28;20030;-84
2022/09/10 02:16:05;;;;;;;15.70;12.75;;;14.90;99.90;;;;;;4946655;28;20065;-85
2022/09/10 02:18:32;;;;;;;18.20;14.90;;;14.90;99.90;;;;;;4942967;28;20309;-85
2022/09/10 02:20:59;;;;;;;19.02;15.05;;;14.90;99.90;;;;;;4958497;28;20058;-85
2022/09/10 02:23:33;;;;;;;18.00;15.30;;;14.90;99.90;;;;;;4979878;28;20138;-85
2022/09/10 02:25:59;;;;;;;21.05;15.45;;;14.90;99.90;;;;;;4957230;28;20043;-85
2022/09/10 02:28:26;;;;;;;19.63;16.58;;;14.60;99.90;;;;;;4958762;28;20515;-84
2022/09/10 02:30:52;;;;;;;17.92;15.15;;;14.90;99.90;;;;;;4974425;28;20101;-84
2022/09/10 02:33:17;;;;;;;20.30;16.15;;;14.90;99.90;;;;;;4973114;28;20383;-84
2022/09/10 02:35:46;;;;;;;18.55;15.30;;;14.90;99.90;;;;;;4945232;28;20130;-85
2022/09/10 02:38:14;;;;;;;17.58;14.93;;;14.90;99.90;;;;;;4943426;28;20054;-84
2022/09/10 02:40:43;;;;;;;16.75;14.52;;;14.90;99.90;;;;;;4960292;28;20046;-84
2022/09/10 02:43:09;;;;;;;18.17;15.77;;;15.00;99.90;;;;;;4955481;28;20054;-85
2022/09/10 02:45:38;;;;;;;22.17;17.02;;;15.00;99.90;;;;;;4951690;28;20535;-84
2022/09/10 02:48:04;;;;;;;20.60;17.58;;;15.00;99.90;;;;;;4958731;28;20078;-85
2022/09/10 02:50:34;;;;;;;19.67;17.23;;;15.30;99.90;;;;;;4975414;28;20042;-85
2022/09/10 02:53:03;;;;;;;19.60;16.20;;;14.50;99.90;;;;;;4957594;28;20641;-86
2022/09/10 02:55:31;;;;;;;18.88;16.55;;;15.10;99.90;;;;;;4973301;28;20081;-84
2022/09/10 02:57:57;;;;;;;18.05;15.40;;;15.10;99.90;;;;;;4943059;28;20046;-84
2022/09/10 03:00:24;;;;;;;23.42;18.38;;;15.10;99.90;;;;;;4976974;28;20085;-84
2022/09/10 03:02:49;;;;;;;21.85;16.48;;;15.20;99.90;;;;;;4990915;28;20054;-84
2022/09/10 03:05:16;;;;;;;22.15;18.25;;;15.00;99.90;;;;;;4973671;28;20448;-85
2022/09/10 03:07:42;;;;;;;24.75;18.27;;;15.10;99.90;;;;;;4940857;28;20047;-85
2022/09/10 03:10:14;;;;;;;20.10;17.92;;;15.10;99.90;;;;;;4955254;28;20077;-86
2022/09/10 03:12:42;;;;;;;25.73;19.55;;;15.20;99.90;;;;;;4974127;28;20057;-84
2022/09/10 03:15:11;;;;;;;22.00;19.10;;;15.20;99.90;;;;;;4946930;28;20544;-84
2022/09/10 03:17:39;;;;;;;22.27;18.98;;;15.10;99.90;;;;;;4956946;28;20042;-86
2022/09/10 03:20:08;;;;;;;21.42;19.05;;;15.10;99.90;;;;;;4972927;28;20057;-84
2022/09/10 03:22:34;;;;;;;21.08;18.50;;;15.10;99.90;;;;;;4957340;28;21364;-84
2022/09/10 03:25:00;;;;;;;21.80;17.95;;;14.20;99.90;;;;;;4955904;28;21540;-85
2022/09/10 03:27:26;;;;;;;22.45;17.65;;;15.10;99.90;;;;;;4973973;28;20124;-85
2022/09/10 03:29:53;;;;;;;23.35;18.73;;;15.10;99.90;;;;;;4971790;28;20050;-84
2022/09/10 03:32:20;;;;;;;21.17;17.83;;;15.00;99.90;;;;;;4955729;28;20073;-84
2022/09/10 03:34:45;;;;;;;23.23;18.42;;;15.80;99.90;;;;;;4954026;28;20050;-86
2022/09/10 03:37:12;;;;;;;23.77;19.15;;;15.10;99.90;;;;;;4970336;28;20046;-85
2022/09/10 03:39:38;;;;;;;19.65;17.15;;;15.30;99.90;;;;;;4954651;28;20050;-84
2022/09/10 03:42:04;;;;;;;20.98;18.27;;;15.00;99.90;;;;;;4954860;28;20046;-84
2022/09/10 03:44:32;;;;;;;20.80;18.30;;;15.00;99.90;;;;;;4988573;28;20286;-85
2022/09/10 03:47:01;;;;;;;19.35;16.92;;;15.00;99.90;;;;;;4956261;28;20054;-85
2022/09/10 03:49:28;;;;;;;21.48;18.88;;;15.00;99.90;;;;;;4942943;28;20061;-86
2022/09/10 03:51:54;;;;;;;20.40;17.83;;;15.00;99.90;;;;;;4971181;28;20133;-85
2022/09/10 03:54:20;;;;;;;20.80;17.13;;;15.00;99.90;;;;;;4956015;28;20106;-84
2022/09/10 03:56:46;;;;;;;20.60;17.15;;;15.00;99.90;;;;;;4974269;28;20133;-85
2022/09/10 03:59:12;;;;;;;20.45;17.77;;;14.90;99.90;;;;;;4945961;28;20055;-84
2022/09/10 04:01:39;;;;;;;20.30;17.80;;;15.00;99.90;;;;;;4971323;28;20062;-84
2022/09/10 04:04:07;;;;;;;24.20;18.85;;;14.90;99.90;;;;;;4957891;28;20061;-85
2022/09/10 04:06:34;;;;;;;22.52;18.63;;;14.90;99.90;;;;;;4960824;28;20556;-84
2022/09/10 04:09:00;;;;;;;24.55;18.52;;;14.90;99.90;;;;;;4957807;28;20408;-84
2022/09/10 04:11:27;;;;;;;18.48;16.45;;;14.90;99.90;;;;;;4972903;28;20042;-85
2022/09/10 04:14:00;;;;;;;19.67;17.58;;;14.80;99.90;;;;;;4972200;28;20054;-85
2022/09/10 04:16:26;;;;;;;20.42;17.52;;;14.80;99.90;;;;;;4955375;28;20058;-85
2022/09/10 04:18:53;;;;;;;22.27;18.67;;;14.80;99.90;;;;;;4974924;28;20053;-84
2022/09/10 04:21:32;;;;;;;26.15;20.00;;;14.80;99.90;;;;;;4971768;28;20486;-85
2022/09/10 04:24:05;;;;;;;25.13;21.27;;;14.90;99.90;;;;;;4945362;28;20047;-85
2022/09/10 04:27:00;;;;;;;24.95;20.92;;;14.90;99.90;;;;;;4946906;28;20058;-86
2022/09/10 04:29:31;;;;;;;24.42;21.35;;;14.90;99.90;;;;;;4977768;28;20062;-85
2022/09/10 04:31:57;;;;;;;23.83;19.48;;;14.90;99.90;;;;;;4941257;28;20136;-84
2022/09/10 04:34:23;;;;;;;26.33;21.02;;;15.00;99.90;;;;;;4958170;28;20140;-81
2022/09/10 04:36:50;;;;;;;25.05;20.38;;;15.00;99.90;;;;;;4925225;28;20074;-84
2022/09/10 04:39:32;;;;;;;22.75;19.05;;;14.40;99.90;;;;;;4983862;28;20046;-86
2022/09/10 04:42:13;;;;;;;;;;;;;;;;;;;;;
2022/09/10 04:44:53;;;;;;;23.27;19.48;;;14.00;99.90;;;;;;4954362;28;20057;-85
2022/09/10 04:47:20;;;;;;;22.27;18.77;;;14.90;99.90;;;;;;4949795;28;20057;-86
2022/09/10 04:50:11;;;;;;;22.27;18.65;;;15.30;99.90;;;;;;4998048;28;20038;-86
2022/09/10 04:52:42;;;;;;;26.35;20.38;;;14.90;99.90;;;;;;4981782;28;20078;-85
2022/09/10 04:55:11;;;;;;;23.90;20.10;;;14.80;99.90;;;;;;4977260;28;20046;-87
2022/09/10 04:57:41;;;;;;;22.92;20.25;;;14.90;99.90;;;;;;4964002;28;20158;-86
2022/09/10 05:00:11;;;;;;;23.40;19.48;;;14.80;99.90;;;;;;4995491;28;20125;-87
2022/09/10 05:02:42;;;;;;;21.92;19.63;;;14.40;99.90;;;;;;4959746;28;20515;-85
2022/09/10 05:05:29;;;;;;;23.52;19.15;;;14.70;99.90;;;;;;4971166;28;21025;-89
2022/09/10 05:08:08;;;;;;;30.30;19.52;;;14.00;99.90;;;;;;4955959;28;20058;-87
2022/09/10 05:11:00;;;;;;;70.63;21.27;;;14.70;99.90;;;;;;4985079;28;20081;-87
2022/09/10 05:13:29;;;;;;;20.45;18.27;;;14.60;99.90;;;;;;4988922;28;20140;-85
2022/09/10 05:15:57;;;;;;;57.97;18.60;;;14.50;99.90;;;;;;4984042;28;20640;-85
2022/09/10 05:18:33;;;;;;;75.40;17.95;;;14.70;99.90;;;;;;4962833;28;20444;-85
2022/09/10 05:21:01;;;;;;;;;;;13.70;99.90;;;;;;5013763;28;20046;-87
2022/09/10 05:23:30;;;;;;;21.63;16.73;;;14.40;99.90;;;;;;4980427;28;20456;-85
2022/09/10 05:26:00;;;;;;;99.53;20.08;;;13.90;99.90;;;;;;4995981;28;20050;-84
2022/09/10 05:28:29;;;;;;;69.68;18.77;;;14.40;99.90;;;;;;4978802;28;20796;-86
2022/09/10 05:30:55;;;;;;;17.73;16.02;;;14.40;99.90;;;;;;4997043;28;20051;-86
2022/09/10 05:33:25;;;;;;;18.55;16.73;;;14.40;99.90;;;;;;4982189;28;20057;-85
2022/09/10 05:35:56;;;;;;;17.38;15.57;;;14.40;99.90;;;;;;4979481;28;20883;-87
2022/09/10 05:38:23;;;;;;;17.80;16.00;;;14.40;99.90;;;;;;4976024;28;20503;-83
2022/09/10 05:40:49;;;;;;;20.15;17.73;;;14.50;99.90;;;;;;4958541;28;20054;-83
2022/09/10 05:43:15;;;;;;;21.50;19.17;;;14.40;99.90;;;;;;4961998;28;20045;-84
2022/09/10 05:45:41;;;;;;;22.30;19.20;;;14.50;99.90;;;;;;4978819;28;20046;-84
2022/09/10 05:48:06;;;;;;;22.80;20.35;;;14.50;99.90;;;;;;4948013;28;20041;-83
2022/09/10 05:50:33;;;;;;;25.58;20.80;;;14.50;99.90;;;;;;4964767;28;20046;-86
2022/09/10 05:53:01;;;;;;;236.90;36.75;;;14.60;99.90;;;;;;4962596;28;20061;-89
2022/09/10 05:55:29;;;;;;;21.15;18.88;;;14.60;99.90;;;;;;4977852;28;20061;-85
2022/09/10 05:57:56;;;;;;;30.67;22.00;;;14.70;99.90;;;;;;4981990;28;20058;-84
2022/09/10 06:00:24;;;;;;;27.33;20.58;;;14.70;99.90;;;;;;4972565;28;20042;-84
2022/09/10 06:02:51;;;;;;;23.60;20.08;;;14.70;99.90;;;;;;4955656;28;20058;-84
2022/09/10 06:05:20;;;;;;;24.05;21.15;;;14.70;99.90;;;;;;4965416;28;20043;-82
2022/09/10 06:07:45;;;;;;;27.15;21.83;;;14.80;99.90;;;;;;4962693;28;20132;-82
2022/09/10 06:10:11;;;;;;;24.92;20.20;;;14.90;99.90;;;;;;4965128;28;20058;-83
2022/09/10 06:12:37;;;;;;;27.00;20.65;;;14.90;99.90;;;;;;4932766;28;20050;-82
2022/09/10 06:15:03;;;;;;;25.33;19.90;;;15.00;99.90;;;;;;4940489;28;20054;-84
2022/09/10 06:17:29;;;;;;;30.25;22.58;;;15.10;99.90;;;;;;4950524;28;20046;-84
2022/09/10 06:19:55;;;;;;;27.98;21.70;;;15.10;99.90;;;;;;4922511;28;20431;-85
2022/09/10 06:22:21;;;;;;;29.85;23.50;;;15.20;99.90;;;;;;4962786;28;20141;-82
2022/09/10 06:24:48;;;;;;;28.58;22.58;;;15.30;99.90;;;;;;4962981;28;20993;-81
2022/09/10 06:27:14;;;;;;;24.05;20.05;;;15.30;99.90;;;;;;4953031;28;20046;-83
2022/09/10 06:29:39;;;;;;;29.92;22.88;;;15.40;99.90;;;;;;4948064;28;20174;-83
2022/09/10 06:32:05;;;;;;;25.30;21.23;;;15.50;99.90;;;;;;4947985;28;20083;-82
2022/09/10 06:34:31;;;;;;;25.05;20.27;;;15.50;99.90;;;;;;4933403;28;20573;-82
2022/09/10 06:36:57;;;;;;;26.25;21.75;;;15.50;99.90;;;;;;4962054;28;20054;-83
2022/09/10 06:39:27;;;;;;;24.65;19.85;;;15.60;99.90;;;;;;4951714;28;20050;-84
2022/09/10 06:41:53;;;;;;;28.00;21.30;;;15.60;99.90;;;;;;4950299;28;20496;-84
2022/09/10 06:44:21;;;;;;;25.90;20.70;;;15.70;99.90;;;;;;4982028;28;20056;-84
2022/09/10 06:46:47;;;;;;;27.80;21.92;;;15.70;99.90;;;;;;4947796;28;20081;-83
2022/09/10 06:49:14;;;;;;;28.52;22.60;;;15.80;99.90;;;;;;4952860;28;20051;-84
2022/09/10 06:51:41;;;;;;;24.98;21.15;;;15.90;99.90;;;;;;4947943;28;20073;-83
2022/09/10 06:54:07;;;;;;;23.20;19.02;;;15.80;99.90;;;;;;4963385;28;21254;-84
2022/09/10 06:56:33;;;;;;;24.23;19.52;;;16.00;99.90;;;;;;4949401;28;20054;-83
2022/09/10 06:58:59;;;;;;;21.23;18.27;;;16.00;99.90;;;;;;4963388;28;20042;-84
2022/09/10 07:01:25;;;;;;;22.88;20.02;;;16.00;99.90;;;;;;4950669;28;20385;-84
2022/09/10 07:03:56;;;;;;;23.30;19.92;;;16.10;99.90;;;;;;4966442;28;20160;-84
2022/09/10 07:06:23;;;;;;;26.48;21.17;;;16.20;99.90;;;;;;4968308;28;20045;-83
2022/09/10 07:08:53;;;;;;;27.50;21.23;;;16.20;99.90;;;;;;4969191;28;20441;-84
2022/09/10 07:11:19;;;;;;;22.27;18.10;;;16.30;99.90;;;;;;4998896;28;20178;-86
2022/09/10 07:13:52;;;;;;;22.55;18.73;;;16.90;99.90;;;;;;4983028;28;20053;-86
2022/09/10 07:16:23;;;;;;;22.80;20.38;;;16.40;99.90;;;;;;4967296;28;20497;-84
2022/09/10 07:18:51;;;;;;;22.05;18.50;;;16.50;99.90;;;;;;4971064;28;20050;-84
2022/09/10 07:21:18;;;;;;;24.27;21.20;;;16.50;99.90;;;;;;4981795;28;20042;-85
2022/09/10 07:23:47;;;;;;;20.95;18.05;;;16.50;99.90;;;;;;4981717;28;20051;-84
2022/09/10 07:26:15;;;;;;;26.23;22.27;;;16.60;99.90;;;;;;4979602;28;20060;-84
2022/09/10 07:28:42;;;;;;;21.38;19.17;;;16.70;99.90;;;;;;5015937;28;20493;-85
2022/09/10 07:31:20;;;;;;;26.27;20.60;;;16.70;99.90;;;;;;4963377;28;20366;-84
2022/09/10 07:33:52;;;;;;;20.35;18.15;;;16.80;99.90;;;;;;4978545;28;20447;-85
2022/09/10 07:36:18;;;;;;;22.77;17.75;;;16.90;99.90;;;;;;4995863;28;20050;-85
2022/09/10 07:38:46;;;;;;;21.40;18.85;;;16.90;99.90;;;;;;4982070;28;20672;-84
2022/09/10 07:41:14;;;;;;;22.55;20.02;;;17.00;99.90;;;;;;4966057;28;20042;-84
2022/09/10 07:43:42;;;;;;;22.13;18.98;;;17.00;99.90;;;;;;4965935;28;20046;-85
2022/09/10 07:46:12;;;;;;;24.70;20.02;;;17.00;99.90;;;;;;4982375;28;20053;-84
2022/09/10 07:48:41;;;;;;;21.58;18.02;;;17.10;99.90;;;;;;4966236;28;20554;-85
2022/09/10 07:51:10;;;;;;;21.33;17.83;;;16.50;99.90;;;;;;4996229;28;20092;-87
2022/09/10 07:53:48;;;;;;;;;;;16.70;99.90;;;;;;5003587;28;20045;-87
2022/09/10 07:57:05;;;;;;;;;;;;;;;;;;;;;
2022/09/10 08:12:53;;;;;;;20.50;17.35;;;17.60;99.90;;;;;;4807116;29;20066;-89
2022/09/10 08:16:06;;;;;;;21.23;17.65;;;17.70;99.90;;;;;;4821708;29;20619;-89
2022/09/10 08:18:42;;;;;;;18.88;16.42;;;17.90;99.90;;;;;;4929892;28;20057;-86
2022/09/10 08:21:11;;;;;;;;;;;18.00;99.90;;;;;;5009539;28;20136;-86
2022/09/10 08:23:47;;;;;;;19.13;15.52;;;18.10;99.90;;;;;;4967204;28;19995;-86
2022/09/10 08:29:11;;;;;;;13.93;12.48;;;18.30;99.90;;;;;;4983043;28;20062;-87
2022/09/10 08:31:37;;;;;;;14.32;12.82;;;18.50;99.90;;;;;;4965240;28;20433;-87
2022/09/10 08:34:09;;;;;;;16.38;14.77;;;18.80;99.90;;;;;;4982255;28;20049;-86
2022/09/10 08:36:35;;;;;;;15.65;12.63;;;18.90;99.90;;;;;;4999414;28;20081;-87
2022/09/10 08:39:03;;;;;;;13.98;12.57;;;19.00;99.90;;;;;;4999447;28;20088;-86
2022/09/10 08:41:41;;;;;;;15.20;12.98;;;19.10;99.90;;;;;;4982982;28;20397;-87
2022/09/10 08:44:34;;;;;;;15.30;13.52;;;19.20;99.90;;;;;;4974704;28;20046;-86
2022/09/10 08:47:20;;;;;;;14.68;12.32;;;19.20;99.90;;;;;;4976904;28;20062;-87
2022/09/10 08:50:05;;;;;;;12.63;11.32;;;19.10;99.90;;;;;;4982197;28;20042;-85
2022/09/10 08:52:42;;;;;;;13.50;11.80;;;19.20;99.90;;;;;;4965052;28;20049;-87
2022/09/10 08:55:17;;;;;;;12.52;11.25;;;19.00;99.90;;;;;;5000235;28;20165;-87
2022/09/10 08:58:12;;;;;;;12.60;11.30;;;19.20;99.90;;;;;;4992467;28;20046;-87
2022/09/10 09:01:03;;;;;;;12.13;10.63;;;19.20;99.90;;;;;;4982603;28;20577;-87
2022/09/10 09:04:31;;;;;;;13.52;12.00;;;19.40;99.90;;;;;;4984900;28;20077;-86
2022/09/10 09:07:00;;;;;;;;;;;18.70;99.90;;;;;;4977967;28;20058;-85
2022/09/10 09:09:34;;;;;;;12.68;11.18;;;19.00;99.90;;;;;;4985542;28;19921;-86
2022/09/10 09:12:21;;;;;;;13.13;11.73;;;18.90;99.90;;;;;;5018270;28;20060;-86
2022/09/10 09:15:17;;;;;;;13.23;11.82;;;19.00;99.90;;;;;;4988496;28;20042;-86
2022/09/10 09:18:09;;;;;;;;;;;;;;;;;;;;;
2022/09/10 09:20:50;;;;;;;16.25;14.60;;;19.10;99.90;;;;;;5035436;28;20063;-85
2022/09/10 09:23:40;;;;;;;17.92;15.00;;;19.10;99.90;;;;;;5003500;28;20045;-85
2022/09/10 09:26:23;;;;;;;16.85;14.55;;;19.10;99.90;;;;;;5018943;28;20061;-86
2022/09/10 09:29:04;;;;;;;17.77;14.73;;;19.10;99.90;;;;;;4986985;28;20056;-85
2022/09/10 09:31:41;;;;;;;19.23;16.30;;;18.30;99.90;;;;;;5003814;28;20045;-86
2022/09/10 09:34:26;;;;;;;18.70;15.85;;;19.00;99.90;;;;;;4989121;28;20051;-85
2022/09/10 09:36:53;;;;;;;16.02;14.32;;;18.60;99.90;;;;;;4990508;28;20041;-85
2022/09/10 09:39:29;;;;;;;17.38;15.02;;;19.00;99.90;;;;;;5023576;28;20052;-85
2022/09/10 09:42:11;;;;;;;16.70;15.00;;;19.60;99.90;;;;;;5008147;28;20132;-87
2022/09/10 09:44:53;;;;;;;18.00;14.82;;;18.90;99.90;;;;;;5006843;28;20042;-89
2022/09/10 09:51:41;;;;;;;18.80;15.38;;;19.00;99.90;;;;;;4970486;28;20049;-87
2022/09/10 09:54:30;;;;;;;16.55;14.63;;;19.00;99.90;;;;;;4976863;28;20053;-88
2022/09/10 09:57:29;;;;;;;;;;;;;;;;;;;;;
2022/09/10 10:00:53;;;;;;;;;;;;;;;;;;;;;
2022/09/10 10:03:57;;;;;;;16.20;14.50;;;19.20;99.90;;;;;;5005606;28;20050;-89
2022/09/10 10:16:58;;;;;;;;;;;;;;;;;;;;;
2022/09/10 10:19:38;;;;;;;;;;;;;;;;;;;;;
2022/09/10 10:22:25;;;;;;;16.52;13.57;;;19.40;99.90;;;;;;5006751;28;20390;-88
2022/09/10 10:24:55;;;;;;;15.77;13.00;;;19.10;99.90;;;;;;5025371;28;20163;-87
2022/09/10 10:27:47;;;;;;;13.55;12.18;;;19.20;99.90;;;;;;4992260;28;20049;-87
2022/09/10 10:30:16;;;;;;;14.65;13.10;;;18.90;99.90;;;;;;5005630;28;20042;-86
2022/09/10 10:33:14;;;;;;;14.25;12.68;;;19.70;99.90;;;;;;5003815;28;20042;-91
2022/09/10 10:43:46;;;;;;;16.08;13.98;;;20.20;99.90;;;;;;4981630;28;20103;-90
2022/09/10 10:47:27;;;;;;;15.88;13.15;;;20.60;99.90;;;;;;5009278;28;20054;-89
2022/09/10 10:54:01;;;;;;;15.45;12.63;;;21.40;99.90;;;;;;4938928;28;20076;-87
2022/09/10 11:00:45;;;;;;;;;;;;;;;;;;;;;
2022/09/10 11:03:50;;;;;;;13.57;9.70;;;22.30;99.90;;;;;;5012989;28;20073;-87
2022/09/10 11:06:48;;;;;;;;;;;;;;;;;;;;;
2022/09/10 11:09:51;;;;;;;10.65;9.57;;;23.10;99.90;;;;;;4986942;28;20082;-87
2022/09/10 11:23:29;;;;;;;8.90;7.70;;;23.90;99.90;;;;;;4940868;28;20055;-86
2022/09/10 11:26:19;;;;;;;;;;;;;;;;;;;;;
2022/09/10 11:29:02;;;;;;;12.25;9.05;;;23.30;99.90;;;;;;4987131;28;20058;-86
2022/09/10 11:31:43;;;;;;;9.13;8.18;;;23.50;99.90;;;;;;4986658;28;20053;-87
2022/09/10 11:34:24;;;;;;;9.23;8.30;;;23.60;99.90;;;;;;4973852;28;20058;-87
2022/09/10 11:37:39;;;;;;;9.25;8.23;;;23.70;99.90;;;;;;4969112;28;20058;-86
2022/09/10 11:40:17;;;;;;;10.45;8.70;;;23.70;99.90;;;;;;4942111;28;20061;-86
2022/09/10 11:42:51;;;;;;;9.30;8.38;;;23.90;99.90;;;;;;4983983;28;20045;-86
2022/09/10 11:45:53;;;;;;;;;;;;;;;;;;;;;
2022/09/10 11:48:36;;;;;;;10.27;7.68;;;24.30;99.90;;;;;;4961050;28;20738;-86
2022/09/10 11:51:24;;;;;;;8.68;7.50;;;24.30;99.90;;;;;;4999500;28;20128;-86
2022/09/10 11:53:54;;;;;;;8.88;7.45;;;24.40;99.90;;;;;;4970875;28;20057;-86
2022/09/10 11:56:37;;;;;;;10.13;7.30;;;24.30;99.90;;;;;;4982329;28;20057;-86
2022/09/10 11:59:17;;;;;;;9.45;7.38;;;24.40;99.90;;;;;;4983948;28;20508;-86
2022/09/10 12:02:19;;;;;;;8.50;7.50;;;24.40;99.90;;;;;;4983836;28;20133;-85
2022/09/10 12:05:18;;;;;;;7.78;6.97;;;24.40;99.90;;;;;;4983299;28;20137;-85
2022/09/10 12:08:19;;;;;;;8.48;7.30;;;24.70;99.90;;;;;;4983643;28;20124;-85
2022/09/10 12:11:15;;;;;;;7.95;6.22;;;25.10;99.90;;;;;;4931796;28;20061;-86
2022/09/10 12:13:46;;;;;;;9.98;6.72;;;25.70;99.90;;;;;;5017141;28;20065;-86
2022/09/10 12:16:40;;;;;;;7.15;6.10;;;26.10;99.90;;;;;;4968976;28;20038;-86
2022/09/10 12:19:18;;;;;;;8.85;7.15;;;25.70;99.90;;;;;;4983097;28;20069;-86
2022/09/10 12:21:53;;;;;;;8.80;6.93;;;26.00;99.90;;;;;;4967315;28;20400;-85
2022/09/10 12:24:39;;;;;;;7.93;5.82;;;25.80;99.90;;;;;;4984332;28;20117;-85
2022/09/10 12:27:17;;;;;;;8.18;5.95;;;25.50;99.90;;;;;;4973162;28;20050;-85
2022/09/10 12:29:48;;;;;;;6.97;5.80;;;25.40;99.90;;;;;;4997242;28;20061;-85
2022/09/10 12:32:49;;;;;;;8.68;6.40;;;25.20;99.90;;;;;;4973475;28;20487;-84
2022/09/10 12:35:30;;;;;;;6.35;5.72;;;24.90;99.90;;;;;;4968097;28;20054;-85
2022/09/10 12:38:34;;;;;;;7.30;5.68;;;24.50;99.90;;;;;;4999945;28;20062;-85
2022/09/10 12:41:01;;;;;;;7.78;5.75;;;24.40;99.90;;;;;;4999205;28;20081;-86
2022/09/10 12:43:42;;;;;;;7.28;5.88;;;24.50;99.90;;;;;;4996476;28;20114;-84
2022/09/10 12:46:11;;;;;;;7.60;6.03;;;24.20;99.90;;;;;;4984806;28;20058;-85
2022/09/10 12:48:46;;;;;;;8.63;6.80;;;24.00;99.90;;;;;;4987451;28;20952;-86
2022/09/10 12:51:41;;;;;;;8.60;6.78;;;23.80;99.90;;;;;;4983983;28;20065;-86
2022/09/10 12:54:40;;;;;;;7.75;6.68;;;23.60;99.90;;;;;;4973791;28;20049;-85
2022/09/10 12:57:18;;;;;;;6.80;5.93;;;23.90;99.90;;;;;;4987191;28;20064;-85
2022/09/10 13:00:08;;;;;;;6.32;5.43;;;24.90;99.90;;;;;;4983560;28;20654;-85
2022/09/10 13:02:45;;;;;;;6.80;5.20;;;24.90;99.90;;;;;;4999946;28;20484;-86
2022/09/10 13:05:44;;;;;;;5.97;5.18;;;25.40;99.90;;;;;;4964714;28;20123;-85
2022/09/10 13:08:17;;;;;;;7.20;4.70;;;25.80;99.90;;;;;;4928416;28;20054;-85
2022/09/10 13:10:58;;;;;;;7.30;4.93;;;26.30;99.90;;;;;;4986310;28;20049;-86
2022/09/10 13:14:00;;;;;;;6.80;4.60;;;26.80;99.90;;;;;;4967111;28;20077;-85
2022/09/10 13:16:26;;;;;;;5.10;3.33;;;27.00;99.90;;;;;;4951134;28;20053;-86
2022/09/10 13:19:15;;;;;;;5.43;4.00;;;27.40;99.90;;;;;;4955414;28;20240;-86
2022/09/10 13:21:44;;;;;;;5.25;4.05;;;27.70;99.90;;;;;;4966836;28;20068;-88
2022/09/10 13:24:55;;;;;;;6.10;3.53;;;28.20;99.90;;;;;;4970257;28;20038;-86
2022/09/10 13:27:38;;;;;;;6.72;4.47;;;28.30;99.90;;;;;;4945510;28;20116;-87
2022/09/10 13:30:20;;;;;;;6.20;3.78;;;28.50;99.30;;;;;;4970104;28;20539;-86
2022/09/10 13:33:03;;;;;;;5.93;4.35;;;28.50;99.90;;;;;;4970742;28;20055;-86
2022/09/10 13:36:09;;;;;;;4.70;3.40;;;28.60;99.70;;;;;;4988558;28;20046;-88
2022/09/10 13:39:02;;;;;;;;;;;;;;;;;;;;;
2022/09/10 13:42:10;;;;;;;4.30;3.42;;;28.40;98.20;;;;;;4975065;28;20065;-87
2022/09/10 13:45:06;;;;;;;5.55;3.47;;;28.90;98.30;;;;;;4990140;28;20429;-87
2022/09/10 13:47:52;;;;;;;6.20;4.03;;;29.00;97.50;;;;;;4952569;28;20133;-87
2022/09/10 13:50:56;;;;;;;;;;;;;;;;;;;;;
2022/09/10 13:53:28;;;;;;;6.30;4.18;;;28.80;97.20;;;;;;4967405;28;20054;-87
2022/09/10 13:55:59;;;;;;;7.35;4.82;;;29.10;97.90;;;;;;4986685;28;21078;-87
2022/09/10 13:58:36;;;;;;;7.85;4.43;;;29.20;97.60;;;;;;4985449;28;20059;-86
2022/09/10 14:01:04;;;;;;;6.63;4.63;;;29.30;97.30;;;;;;4986327;28;20088;-87
2022/09/10 14:03:39;;;;;;;7.70;4.30;;;29.20;97.50;;;;;;4958666;28;20108;-86
2022/09/10 14:06:25;;;;;;;5.63;4.15;;;29.20;97.00;;;;;;4987447;28;20042;-86
2022/09/10 14:09:04;;;;;;;5.13;3.85;;;29.20;97.10;;;;;;4974799;28;20496;-87
2022/09/10 14:11:40;;;;;;;5.32;4.10;;;29.10;97.20;;;;;;4973082;28;20081;-88
2022/09/10 14:14:24;;;;;;;6.72;4.65;;;28.90;96.40;;;;;;4969352;28;20073;-87
2022/09/10 14:17:20;;;;;;;6.25;4.13;;;29.30;96.40;;;;;;4994186;28;20516;-87
2022/09/10 14:19:50;;;;;;;;;;;29.30;95.00;;;;;;4985415;28;20405;-88
2022/09/10 14:22:24;;;;;;;4.60;3.95;;;29.30;95.90;;;;;;4989701;28;19929;-87
2022/09/10 14:25:11;;;;;;;;;;;;;;;;;;;;;
2022/09/10 14:28:08;;;;;;;6.47;4.15;;;29.10;95.90;;;;;;4987285;28;20053;-88
2022/09/10 14:30:37;;;;;;;6.10;4.32;;;29.20;96.40;;;;;;4987885;28;20049;-86
2022/09/10 14:33:35;;;;;;;7.80;4.55;;;29.20;96.30;;;;;;4969538;28;20116;-86
2022/09/10 14:36:29;;;;;;;7.07;4.78;;;29.00;95.90;;;;;;4998956;28;20777;-86